| time (UTC) | temp F | wind direction | speed knots | gust knots | rain 1hr in | rain 24hr in | rain mn in | humidity % | barometer mb |
| 20260906145403 | 78 | 329 | 0.9 | 4.3 | 0.00 | 0.00 | 0.00 | 82 | 1016.2 |
| 20260906144503 | 77 | 330 | 1.7 | 4.3 | 0.00 | 0.00 | 0.00 | 83 | 1016.1 |
| 20260906143603 | 77 | 334 | 0.9 | 5.2 | 0.00 | 0.00 | 0.00 | 84 | 1016.2 |
| 20260906142703 | 77 | 329 | 0.9 | 2.6 | 0.00 | 0.00 | 0.00 | 84 | 1016.2 |
| 20260906141803 | 77 | 332 | 0.9 | 3.5 | 0.00 | 0.00 | 0.00 | 83 | 1016.2 |
| 20260906140903 | 77 | 328 | 0.0 | 3.5 | 0.00 | 0.00 | 0.00 | 83 | 1016.0 |
| 20260906140003 | 77 | 328 | 0.0 | 0.9 | 0.00 | 0.00 | 0.00 | 84 | 1016.0 |
| 20260906135424 | 77 | 331 | 0.0 | 1.7 | 0.00 | 0.00 | 0.00 | 85 | 1016.0 |
| 20260906134524 | 76 | 329 | 0.0 | 1.7 | 0.00 | 0.00 | 0.00 | 86 | 1016.0 |
| 20260906133624 | 76 | 333 | 0.0 | 2.6 | 0.00 | 0.00 | 0.00 | 87 | 1015.9 |
| 20260906132724 | 76 | 331 | 0.0 | 3.5 | 0.00 | 0.00 | 0.00 | 87 | 1016.0 |
| 20260906131824 | 76 | 323 | 0.0 | 1.7 | 0.00 | 0.00 | 0.00 | 87 | 1015.9 |
| 20260906130903 | 75 | 313 | 0.0 | 1.7 | 0.00 | 0.00 | 0.00 | 88 | 1016.0 |
| 20260906130003 | 75 | 332 | 0.9 | 3.5 | 0.00 | 0.00 | 0.00 | 88 | 1016.0 |
| 20260906125403 | 75 | 331 | 0.9 | 3.5 | 0.00 | 0.00 | 0.00 | 87 | 1016.0 |
| 20260906124503 | 75 | 338 | 0.0 | 2.6 | 0.00 | 0.00 | 0.00 | 88 | 1015.8 |
| 20260906123603 | 75 | 328 | 0.0 | 2.6 | 0.00 | 0.00 | 0.00 | 88 | 1015.7 |
| 20260906122703 | 75 | 327 | 0.0 | 0.9 | 0.00 | 0.00 | 0.00 | 88 | 1015.6 |
| 20260906121803 | 75 | 311 | 0.0 | 0.9 | 0.00 | 0.00 | 0.00 | 88 | 1015.6 |
| 20260906120903 | 75 | 329 | 0.0 | 0.9 | 0.00 | 0.00 | 0.00 | 88 | 1015.5 |
| 20260906120003 | 75 | 0 | 0.0 | 0.0 | 0.00 | 0.00 | 0.00 | 88 | 1015.4 |
| 20260906115403 | 75 | 0 | 0.0 | 0.0 | 0.00 | 0.00 | 0.00 | 87 | 1015.3 |
| 20260906114503 | 76 | 0 | 0.0 | 0.0 | 0.00 | 0.00 | 0.00 | 87 | 1015.4 |
| 20260906113603 | 76 | 0 | 0.0 | 0.0 | 0.00 | 0.00 | 0.00 | 87 | 1015.2 |
| 20260906112703 | 76 | 329 | 0.0 | 0.9 | 0.00 | 0.00 | 0.00 | 87 | 1015.1 |
| 20260906111803 | 76 | 329 | 0.0 | 0.9 | 0.00 | 0.00 | 0.00 | 86 | 1015.1 |
| 20260906110903 | 76 | 0 | 0.0 | 0.0 | 0.00 | 0.00 | 0.00 | 86 | 1015.0 |
| 20260906110003 | 76 | 0 | 0.0 | 0.9 | 0.00 | 0.00 | 0.00 | 86 | 1014.8 |
| 20260906105403 | 77 | 0 | 0.0 | 0.9 | 0.00 | 0.00 | 0.00 | 86 | 1014.9 |
| 20260906104503 | 77 | 325 | 0.0 | 0.9 | 0.00 | 0.00 | 0.00 | 86 | 1014.9 |
| 20260906103603 | 77 | 326 | 0.0 | 0.9 | 0.00 | 0.00 | 0.00 | 86 | 1014.8 |
| 20260906102703 | 77 | 323 | 0.0 | 0.9 | 0.00 | 0.00 | 0.00 | 86 | 1014.7 |
| 20260906101803 | 78 | 0 | 0.0 | 0.0 | 0.00 | 0.00 | 0.00 | 87 | 1014.7 |
| 20260906100903 | 78 | 333 | 0.0 | 0.9 | 0.00 | 0.00 | 0.00 | 86 | 1014.6 |
| 20260906100003 | 78 | 0 | 0.0 | 0.0 | 0.00 | 0.00 | 0.00 | 86 | 1014.5 |
| 20260906095403 | 78 | 0 | 0.0 | 0.0 | 0.00 | 0.00 | 0.00 | 86 | 1014.4 |
| 20260906094504 | 78 | 320 | 0.0 | 0.9 | 0.00 | 0.00 | 0.00 | 85 | 1014.5 |
| 20260906093603 | 78 | 0 | 0.0 | 0.0 | 0.00 | 0.00 | 0.00 | 85 | 1014.3 |
| 20260906092703 | 79 | 328 | 0.0 | 0.9 | 0.00 | 0.00 | 0.00 | 84 | 1014.3 |
| 20260906091803 | 79 | 333 | 0.0 | 1.7 | 0.00 | 0.00 | 0.00 | 85 | 1014.2 |
| 20260906090903 | 79 | 0 | 0.0 | 0.0 | 0.00 | 0.00 | 0.00 | 85 | 1014.1 |
| 20260906090004 | 79 | 321 | 0.0 | 0.9 | 0.00 | 0.00 | 0.00 | 85 | 1014.1 |
| 20260906085424 | 79 | 337 | 0.0 | 0.9 | 0.00 | 0.00 | 0.00 | 85 | 1014.1 |
| 20260906084524 | 80 | 325 | 0.0 | 0.9 | 0.00 | 0.00 | 0.00 | 85 | 1014.0 |
| 20260906083624 | 80 | 338 | 0.0 | 0.9 | 0.00 | 0.00 | 0.00 | 85 | 1014.0 |
| 20260906082724 | 80 | 327 | 0.0 | 0.9 | 0.00 | 0.00 | 0.00 | 85 | 1013.9 |
| 20260906081824 | 81 | 0 | 0.0 | 0.0 | 0.00 | 0.00 | 0.00 | 84 | 1013.9 |
| 20260906080924 | 81 | 297 | 0.0 | 0.9 | 0.00 | 0.00 | 0.00 | 84 | 1013.9 |
| 20260906080024 | 81 | 262 | 0.0 | 1.7 | 0.00 | 0.00 | 0.00 | 84 | 1013.8 |
| 20260906075424 | 81 | 330 | 0.0 | 1.7 | 0.00 | 0.00 | 0.00 | 84 | 1013.9 |
| 20260906074524 | 81 | 276 | 0.0 | 0.9 | 0.00 | 0.00 | 0.00 | 84 | 1013.9 |
| 20260906073624 | 82 | 0 | 0.0 | 0.9 | 0.00 | 0.00 | 0.00 | 84 | 1014.0 |
| 20260906072703 | 82 | 0 | 0.0 | 0.9 | 0.00 | 0.00 | 0.00 | 84 | 1013.9 |
| 20260906071803 | 82 | 0 | 0.0 | 0.9 | 0.00 | 0.00 | 0.00 | 83 | 1013.8 |
| 20260906070903 | 82 | 0 | 0.0 | 0.9 | 0.00 | 0.00 | 0.00 | 83 | 1013.7 |
| 20260906070003 | 82 | 0 | 0.0 | 0.9 | 0.00 | 0.00 | 0.00 | 83 | 1013.8 |
| 20260906065403 | 83 | 0 | 0.0 | 0.0 | 0.00 | 0.00 | 0.00 | 82 | 1013.9 |
| 20260906064504 | 83 | 0 | 0.0 | 0.0 | 0.00 | 0.00 | 0.00 | 81 | 1013.8 |
| 20260906063603 | 84 | 0 | 0.0 | 0.0 | 0.00 | 0.00 | 0.00 | 80 | 1013.9 |
| 20260906062703 | 84 | 184 | 0.0 | 1.7 | 0.00 | 0.00 | 0.00 | 80 | 1013.9 |
| 20260906061803 | 84 | 284 | 0.0 | 2.6 | 0.00 | 0.00 | 0.00 | 79 | 1013.8 |
| 20260906060903 | 85 | 330 | 0.0 | 2.6 | 0.00 | 0.00 | 0.00 | 79 | 1013.8 |
| 20260906060003 | 85 | 288 | 0.0 | 0.9 | 0.00 | 0.00 | 0.00 | 78 | 1013.9 |
| 20260906055403 | 85 | 323 | 0.0 | 0.9 | 0.00 | 0.00 | 0.00 | 78 | 1013.9 |
| 20260906054503 | 85 | 259 | 0.0 | 0.9 | 0.00 | 0.00 | 0.00 | 78 | 1013.9 |
| 20260906053603 | 85 | 259 | 0.0 | 0.9 | 0.00 | 0.00 | 0.00 | 77 | 1013.8 |
| 20260906052703 | 86 | 0 | 0.0 | 0.0 | 0.00 | 0.00 | 0.00 | 76 | 1013.8 |
| 20260906051803 | 86 | 0 | 0.0 | 0.0 | 0.00 | 0.00 | 0.00 | 76 | 1013.8 |
| 20260906050903 | 86 | 0 | 0.0 | 0.9 | 0.00 | 0.00 | 0.00 | 75 | 1013.9 |
| 20260906050004 | 86 | 221 | 0.0 | 0.9 | 0.00 | 0.00 | 0.00 | 75 | 1013.7 |
| 20260906045403 | 86 | 225 | 0.0 | 0.9 | 0.00 | 0.00 | 0.00 | 75 | 1013.6 |
| 20260906044503 | 86 | 0 | 0.0 | 0.0 | 0.00 | 0.00 | 0.00 | 75 | 1013.5 |
| 20260906043603 | 86 | 278 | 0.0 | 0.9 | 0.00 | 0.00 | 0.00 | 74 | 1013.5 |
| 20260906042703 | 86 | 0 | 0.0 | 0.0 | 0.00 | 0.00 | 0.00 | 73 | 1013.4 |
| 20260906041803 | 87 | 237 | 0.0 | 0.9 | 0.00 | 0.00 | 0.00 | 73 | 1013.4 |
| 20260906040903 | 87 | 0 | 0.0 | 0.0 | 0.00 | 0.00 | 0.00 | 71 | 1013.3 |
| 20260906040004 | 87 | 0 | 0.0 | 0.0 | 0.00 | 0.00 | 0.00 | 71 | 1013.3 |
| 20260906035403 | 87 | 0 | 0.0 | 0.9 | 0.00 | 0.00 | 0.00 | 70 | 1013.3 |
| 20260906034503 | 87 | 0 | 0.0 | 0.0 | 0.00 | 0.00 | 0.00 | 69 | 1013.2 |
| 20260906033603 | 87 | 211 | 0.0 | 0.9 | 0.00 | 0.00 | 0.00 | 70 | 1013.2 |
| 20260906032703 | 87 | 0 | 0.0 | 0.0 | 0.00 | 0.00 | 0.00 | 70 | 1013.2 |
| 20260906031803 | 87 | 0 | 0.0 | 0.9 | 0.00 | 0.00 | 0.00 | 68 | 1012.9 |
| 20260906030903 | 87 | 0 | 0.0 | 0.9 | 0.00 | 0.00 | 0.00 | 69 | 1012.9 |
| 20260906030003 | 87 | 0 | 0.0 | 0.0 | 0.00 | 0.00 | 0.00 | 71 | 1012.9 |
| 20260906025403 | 87 | 0 | 0.0 | 0.0 | 0.00 | 0.00 | 0.00 | 68 | 1012.8 |
| 20260906024503 | 88 | 0 | 0.0 | 0.0 | 0.00 | 0.00 | 0.00 | 68 | 1012.8 |
| 20260906023603 | 88 | 0 | 0.0 | 0.0 | 0.00 | 0.00 | 0.00 | 68 | 1012.6 |
| 20260906022703 | 88 | 0 | 0.0 | 0.0 | 0.00 | 0.00 | 0.00 | 67 | 1012.4 |
| 20260906021803 | 88 | 0 | 0.0 | 0.0 | 0.00 | 0.00 | 0.00 | 67 | 1012.3 |
| 20260906020903 | 89 | 0 | 0.0 | 0.0 | 0.00 | 0.00 | 0.00 | 66 | 1012.2 |
| 20260906020003 | 89 | 0 | 0.0 | 0.0 | 0.00 | 0.00 | 0.00 | 66 | 1012.1 |
| 20260906015403 | 89 | 0 | 0.0 | 0.0 | 0.00 | 0.00 | 0.00 | 65 | 1012.0 |
| 20260906014503 | 90 | 0 | 0.0 | 0.0 | 0.00 | 0.00 | 0.00 | 64 | 1011.9 |
| 20260906013603 | 90 | 0 | 0.0 | 0.0 | 0.00 | 0.00 | 0.00 | 63 | 1011.8 |
| 20260906012703 | 90 | 0 | 0.0 | 0.0 | 0.00 | 0.00 | 0.00 | 62 | 1011.7 |
| 20260906011803 | 91 | 0 | 0.0 | 0.0 | 0.00 | 0.00 | 0.00 | 62 | 1011.6 |
| 20260906010903 | 91 | 0 | 0.0 | 0.0 | 0.00 | 0.00 | 0.00 | 60 | 1011.5 |
| 20260906010003 | 92 | 0 | 0.0 | 0.0 | 0.00 | 0.00 | 0.00 | 61 | 1011.4 |
| 20260906005403 | 92 | 0 | 0.0 | 0.0 | 0.00 | 0.00 | 0.00 | 59 | 1011.3 |
| 20260906004503 | 92 | 319 | 0.0 | 1.7 | 0.00 | 0.00 | 0.00 | 57 | 1011.3 |
| 20260906003603 | 93 | 331 | 0.0 | 0.9 | 0.00 | 0.00 | 0.00 | 57 | 1011.3 |
| 20260906002703 | 93 | 329 | 0.0 | 0.9 | 0.00 | 0.00 | 0.00 | 56 | 1011.4 |
| 20260906001803 | 94 | 0 | 0.0 | 0.0 | 0.00 | 0.00 | 0.00 | 55 | 1011.3 |
| 20260906000903 | 94 | 0 | 0.0 | 0.9 | 0.00 | 0.00 | 0.00 | 54 | 1011.3 |
| 20260906000003 | 94 | 0 | 0.0 | 0.0 | 0.00 | 0.00 | 0.00 | 53 | 1011.4 |
| 20260905235403 | 95 | 322 | 0.0 | 0.9 | 0.00 | 0.00 | 0.00 | 53 | 1011.4 |
| 20260905234503 | 95 | 323 | 0.0 | 0.9 | 0.00 | 0.00 | 0.00 | 52 | 1011.4 |
| 20260905233603 | 96 | 0 | 0.0 | 0.0 | 0.00 | 0.00 | 0.00 | 52 | 1011.4 |
| 20260905232703 | 96 | 0 | 0.0 | 0.0 | 0.00 | 0.00 | 0.00 | 51 | 1011.4 |
| 20260905231803 | 96 | 323 | 0.0 | 0.9 | 0.00 | 0.00 | 0.00 | 49 | 1011.5 |
| 20260905230903 | 96 | 333 | 0.0 | 0.9 | 0.00 | 0.00 | 0.00 | 48 | 1011.5 |
| 20260905230005 | 97 | 333 | 0.9 | 2.6 | 0.00 | 0.00 | 0.00 | 46 | 1011.5 |
| 20260905225424 | 97 | 333 | 0.9 | 2.6 | 0.00 | 0.00 | 0.00 | 46 | 1011.5 |
| 20260905224524 | 97 | 330 | 0.9 | 3.5 | 0.00 | 0.00 | 0.00 | 46 | 1011.4 |
| 20260905223624 | 98 | 329 | 0.9 | 3.5 | 0.00 | 0.00 | 0.00 | 45 | 1011.3 |
| 20260905222725 | 98 | 334 | 1.7 | 7.0 | 0.00 | 0.00 | 0.00 | 47 | 1011.3 |
| 20260905221824 | 98 | 329 | 1.7 | 5.2 | 0.00 | 0.00 | 0.00 | 48 | 1011.3 |
| 20260905220903 | 98 | 332 | 0.9 | 3.5 | 0.00 | 0.00 | 0.00 | 44 | 1011.3 |
| 20260905220003 | 99 | 330 | 0.9 | 2.6 | 0.00 | 0.00 | 0.00 | 43 | 1011.2 |
| 20260905215403 | 99 | 330 | 0.9 | 2.6 | 0.00 | 0.00 | 0.00 | 43 | 1011.3 |
| 20260905214503 | 99 | 325 | 0.9 | 3.5 | 0.00 | 0.00 | 0.00 | 45 | 1011.4 |
| 20260905213603 | 98 | 317 | 0.9 | 3.5 | 0.00 | 0.00 | 0.00 | 46 | 1011.4 |
| 20260905212703 | 98 | 328 | 1.7 | 4.3 | 0.00 | 0.00 | 0.00 | 45 | 1011.3 |
| 20260905211803 | 98 | 334 | 0.9 | 3.5 | 0.00 | 0.00 | 0.00 | 47 | 1011.4 |
| 20260905210903 | 97 | 326 | 0.9 | 3.5 | 0.00 | 0.00 | 0.00 | 48 | 1011.5 |
| 20260905210003 | 97 | 330 | 0.9 | 4.3 | 0.00 | 0.00 | 0.00 | 48 | 1011.6 |
| 20260905205403 | 98 | 329 | 1.7 | 7.0 | 0.00 | 0.00 | 0.00 | 47 | 1011.8 |
| 20260905204503 | 99 | 334 | 2.6 | 7.0 | 0.00 | 0.00 | 0.00 | 44 | 1011.8 |
| 20260905203603 | 100 | 327 | 1.7 | 2.6 | 0.00 | 0.00 | 0.00 | 42 | 1011.7 |
| 20260905202703 | 101 | 332 | 1.7 | 7.0 | 0.00 | 0.00 | 0.00 | 38 | 1011.5 |
| 20260905201803 | 102 | 310 | 0.9 | 4.3 | 0.00 | 0.00 | 0.00 | 40 | 1011.5 |
| 20260905200903 | 101 | 331 | 0.9 | 4.3 | 0.00 | 0.00 | 0.00 | 43 | 1011.7 |
| 20260905200024 | 101 | 332 | 0.9 | 2.6 | 0.00 | 0.00 | 0.00 | 42 | 1011.8 |
| 20260905195424 | 101 | 333 | 0.9 | 2.6 | 0.00 | 0.00 | 0.00 | 42 | 1011.9 |
| 20260905194524 | 100 | 329 | 0.9 | 4.3 | 0.00 | 0.00 | 0.00 | 41 | 1012.0 |
| 20260905193624 | 100 | 335 | 1.7 | 4.3 | 0.00 | 0.00 | 0.00 | 41 | 1012.2 |
| 20260905192724 | 100 | 333 | 1.7 | 4.3 | 0.00 | 0.00 | 0.00 | 42 | 1012.4 |
| 20260905191803 | 100 | 338 | 0.9 | 3.5 | 0.00 | 0.00 | 0.00 | 41 | 1012.4 |
| 20260905190903 | 100 | 328 | 0.9 | 5.2 | 0.00 | 0.00 | 0.00 | 43 | 1012.4 |
| 20260905190003 | 100 | 327 | 0.9 | 4.3 | 0.00 | 0.00 | 0.00 | 43 | 1012.6 |
| 20260905185403 | 100 | 329 | 0.9 | 5.2 | 0.00 | 0.00 | 0.00 | 43 | 1012.6 |
| 20260905184503 | 100 | 333 | 0.9 | 4.3 | 0.00 | 0.00 | 0.00 | 44 | 1012.7 |
| 20260905183603 | 99 | 334 | 1.7 | 4.3 | 0.00 | 0.00 | 0.00 | 44 | 1012.9 |
| 20260905182703 | 99 | 334 | 1.7 | 4.3 | 0.00 | 0.00 | 0.00 | 45 | 1012.9 |
| 20260905181803 | 99 | 330 | 0.9 | 3.5 | 0.00 | 0.00 | 0.00 | 46 | 1013.0 |
| 20260905180903 | 98 | 335 | 0.9 | 2.6 | 0.00 | 0.00 | 0.00 | 48 | 1013.1 |
| 20260905180003 | 98 | 340 | 1.7 | 4.3 | 0.00 | 0.00 | 0.00 | 48 | 1013.2 |
| 20260905175403 | 98 | 333 | 0.9 | 4.3 | 0.00 | 0.00 | 0.00 | 47 | 1013.2 |
| 20260905174503 | 98 | 332 | 0.0 | 2.6 | 0.00 | 0.00 | 0.00 | 49 | 1013.3 |
| 20260905173603 | 97 | 332 | 1.7 | 3.5 | 0.00 | 0.00 | 0.00 | 50 | 1013.3 |
| 20260905172703 | 96 | 331 | 0.9 | 3.5 | 0.00 | 0.00 | 0.00 | 51 | 1013.4 |
| 20260905171803 | 96 | 341 | 0.9 | 3.5 | 0.00 | 0.00 | 0.00 | 51 | 1013.4 |
| 20260905170903 | 95 | 330 | 0.9 | 3.5 | 0.00 | 0.00 | 0.00 | 56 | 1013.7 |
| 20260905170003 | 95 | 356 | 0.0 | 1.7 | 0.00 | 0.00 | 0.00 | 58 | 1013.8 |
| 20260905165403 | 94 | 331 | 0.9 | 3.5 | 0.00 | 0.00 | 0.00 | 58 | 1013.9 |
| 20260905164503 | 94 | 327 | 0.0 | 1.7 | 0.00 | 0.00 | 0.00 | 58 | 1013.9 |
| 20260905163603 | 93 | 328 | 0.9 | 3.5 | 0.00 | 0.00 | 0.00 | 59 | 1013.9 |
| 20260905162724 | 93 | 328 | 0.9 | 3.5 | 0.00 | 0.00 | 0.00 | 60 | 1014.1 |
| 20260905161824 | 92 | 342 | 0.0 | 2.6 | 0.00 | 0.00 | 0.00 | 61 | 1014.1 |
| 20260905160924 | 92 | 323 | 0.9 | 2.6 | 0.00 | 0.00 | 0.00 | 60 | 1014.3 |
| 20260905160024 | 91 | 333 | 0.9 | 1.7 | 0.00 | 0.00 | 0.00 | 62 | 1014.1 |
| 20260905155424 | 91 | 354 | 0.9 | 2.6 | 0.00 | 0.00 | 0.00 | 62 | 1014.1 |
| 20260905154503 | 90 | 345 | 0.0 | 2.6 | 0.00 | 0.00 | 0.00 | 63 | 1014.2 |
| 20260905153603 | 89 | 338 | 0.9 | 3.5 | 0.00 | 0.00 | 0.00 | 65 | 1014.2 |
| 20260905152703 | 89 | 336 | 0.9 | 3.5 | 0.00 | 0.00 | 0.00 | 64 | 1014.2 |
| 20260905151803 | 89 | 341 | 0.0 | 2.6 | 0.00 | 0.00 | 0.00 | 65 | 1014.3 |
| 20260905150903 | 88 | 328 | 0.9 | 4.3 | 0.00 | 0.00 | 0.00 | 65 | 1014.3 |
| 20260905150003 | 88 | 330 | 0.9 | 4.3 | 0.00 | 0.00 | 0.00 | 65 | 1014.3 |